Time;durP1;ratioP1;P1;durP2;ratioP2;P2;SDS_P1;SDS_P2;PMS_P1;PMS_P2;Temp;Humidity;BMP_temperature;BMP_pressure;BME280_temperature;BME280_humidity;BME280_pressure;Samples;Min_cycle;Max_cycle;Signal;HPM_P1;HPM_P2
2024/01/28 00:01:41;;;;;;;0.00;0.00;;;;;;;7.57;60.77;103309.22;5027456;28;20291;-37
2024/01/28 00:04:07;;;;;;;0.10;0.10;;;;;;;7.54;61.02;103309.22;5030314;28;20434;-38
2024/01/28 00:06:32;;;;;;;0.05;0.05;;;;;;;7.51;60.73;103316.22;5046308;28;20034;-38
2024/01/28 00:08:57;;;;;;;0.10;0.10;;;;;;;7.47;60.59;103318.00;5046663;28;20029;-39
2024/01/28 00:11:22;;;;;;;0.10;0.10;;;;;;;7.46;60.91;103322.34;5048239;28;20036;-39
2024/01/28 00:13:48;;;;;;;0.10;0.10;;;;;;;7.44;60.81;103318.84;5052073;28;20053;-37
2024/01/28 00:16:14;;;;;;;0.10;0.10;;;;;;;7.39;61.04;103320.63;5051310;28;20111;-39
2024/01/28 00:18:40;;;;;;;0.10;0.10;;;;;;;7.39;61.07;103324.97;5044783;28;20094;-40
2024/01/28 00:21:05;;;;;;;0.10;0.10;;;;;;;7.36;60.73;103322.38;5028407;28;20029;-36
2024/01/28 00:23:30;;;;;;;0.10;0.10;;;;;;;7.35;60.97;103321.50;5026687;28;20270;-40
2024/01/28 00:25:57;;;;;;;0.10;0.10;;;;;;;7.32;61.21;103317.16;5032575;28;20040;-40
2024/01/28 00:28:22;;;;;;;0.10;0.10;;;;;;;7.28;61.28;103312.78;5047017;28;20037;-40
2024/01/28 00:30:47;;;;;;;0.10;0.10;;;;;;;7.27;61.25;103320.63;5043943;28;20032;-40
2024/01/28 00:33:12;;;;;;;0.10;0.10;;;;;;;7.23;61.23;103319.78;5045645;28;20036;-41
2024/01/28 00:35:38;;;;;;;0.10;0.10;;;;;;;7.20;61.00;103322.41;5043587;28;20241;-38
2024/01/28 00:38:03;;;;;;;0.10;0.10;;;;;;;7.18;61.53;103311.09;5042941;28;20040;-39
2024/01/28 00:40:29;;;;;;;0.10;0.10;;;;;;;7.19;61.33;103312.78;5050576;28;20287;-40
2024/01/28 00:42:54;;;;;;;0.10;0.10;;;;;;;7.16;60.90;103318.06;5043700;28;20036;-39
2024/01/28 00:45:19;;;;;;;0.10;0.10;;;;;;;7.11;60.93;103315.44;5049358;28;20119;-39
2024/01/28 00:47:45;;;;;;;0.10;0.10;;;;;;;7.07;61.32;103318.94;5044638;28;20034;-40
2024/01/28 00:50:11;;;;;;;0.10;0.10;;;;;;;7.06;61.34;103319.81;5031367;28;21083;-40
2024/01/28 00:52:36;;;;;;;0.10;0.10;;;;;;;7.03;61.55;103313.72;5046757;28;20033;-38
2024/01/28 00:55:01;;;;;;;0.10;0.10;;;;;;;7.01;61.61;103298.91;5048466;28;20044;-39
2024/01/28 00:57:27;;;;;;;0.10;0.10;;;;;;;7.00;61.47;103307.63;5044248;28;20295;-37
2024/01/28 00:59:52;;;;;;;0.10;0.10;;;;;;;6.96;61.48;103305.88;5044079;28;20033;-39
2024/01/28 01:02:17;;;;;;;0.10;0.10;;;;;;;6.93;61.41;103308.50;5048078;28;20033;-41
2024/01/28 01:04:43;;;;;;;0.10;0.10;;;;;;;6.88;61.55;103310.25;5047672;28;20044;-38
2024/01/28 01:07:08;;;;;;;0.10;0.10;;;;;;;6.88;61.22;103307.63;5040871;28;20028;-41
2024/01/28 01:09:35;;;;;;;0.10;0.10;;;;;;;6.87;61.41;103305.91;5053985;28;20027;-36
2024/01/28 01:12:02;;;;;;;6.80;6.32;;;;;;;6.82;61.41;103307.63;5024715;28;20036;-39
2024/01/28 01:14:27;;;;;;;0.00;0.00;;;;;;;6.81;61.52;103306.75;5047253;28;20457;-39
2024/01/28 01:16:53;;;;;;;0.00;0.00;;;;;;;6.77;61.38;103310.25;5044799;28;20119;-42
2024/01/28 01:19:18;;;;;;;0.10;0.10;;;;;;;6.77;61.86;103306.75;5046518;28;20041;-44
2024/01/28 01:21:43;;;;;;;0.10;0.10;;;;;;;6.74;61.64;103310.25;5046452;28;20025;-37
2024/01/28 01:24:08;;;;;;;0.10;0.10;;;;;;;6.76;61.75;103318.09;5041526;28;20025;-40
2024/01/28 01:26:34;;;;;;;0.10;0.10;;;;;;;6.76;61.77;103328.56;5047251;28;20036;-37
2024/01/28 01:28:59;;;;;;;0.10;0.10;;;;;;;6.78;61.76;103318.97;5046591;28;20033;-35
2024/01/28 01:31:24;;;;;;;0.10;0.10;;;;;;;6.80;62.01;103325.97;5025799;28;20279;-39
2024/01/28 01:33:50;;;;;;;0.10;0.10;;;;;;;6.82;62.21;103323.34;5047446;28;20634;-36
2024/01/28 01:36:15;;;;;;;0.10;0.10;;;;;;;6.83;61.79;103325.09;5041481;28;20288;-37
2024/01/28 01:38:40;;;;;;;0.10;0.10;;;;;;;6.77;61.71;103314.59;5044912;28;20029;-44
2024/01/28 01:41:05;;;;;;;0.10;0.10;;;;;;;6.73;61.52;103318.13;5041585;28;20037;-44
2024/01/28 01:43:31;;;;;;;0.10;0.10;;;;;;;6.71;61.94;103321.59;5048803;28;20036;-46
2024/01/28 01:45:57;;;;;;;0.10;0.10;;;;;;;6.71;61.89;103326.84;5060692;28;20617;-37
2024/01/28 01:48:22;;;;;;;0.10;0.10;;;;;;;6.67;61.78;103319.84;5044759;28;20052;-45
2024/01/28 01:50:48;;;;;;;0.10;0.10;;;;;;;6.67;61.72;103322.47;5063922;28;20166;-46
2024/01/28 01:53:14;;;;;;;0.10;0.10;;;;;;;6.61;61.69;103322.44;5041537;28;20114;-40
2024/01/28 01:55:40;;;;;;;0.10;0.10;;;;;;;6.55;61.53;103325.94;5044133;28;20111;-39
2024/01/28 01:58:07;;;;;;;0.10;0.10;;;;;;;6.52;61.71;103328.56;5046983;28;20029;-36
2024/01/28 02:00:34;;;;;;;0.10;0.10;;;;;;;6.52;61.81;103331.16;5044064;28;20033;-36
2024/01/28 02:02:59;;;;;;;0.10;0.10;;;;;;;6.50;62.30;103329.44;5049587;28;20029;-41
2024/01/28 02:05:24;;;;;;;0.10;0.10;;;;;;;6.49;61.84;103335.53;5046298;28;20038;-37
2024/01/28 02:07:50;;;;;;;0.10;0.10;;;;;;;6.48;62.13;103333.78;5046714;28;20112;-38
2024/01/28 02:10:16;;;;;;;0.10;0.10;;;;;;;6.45;61.85;103333.78;5044628;28;20029;-39
2024/01/28 02:12:44;;;;;;;0.10;0.10;;;;;;;6.41;61.88;103332.91;5038650;28;20041;-40
2024/01/28 02:15:09;;;;;;;0.10;0.10;;;;;;;6.42;61.90;103337.25;5042207;28;20055;-40
2024/01/28 02:17:35;;;;;;;0.10;0.10;;;;;;;6.38;61.82;103325.03;5045150;28;20056;-43
2024/01/28 02:20:02;;;;;;;0.10;0.10;;;;;;;6.36;62.19;103330.28;5048116;28;20031;-47
2024/01/28 02:22:27;;;;;;;0.00;0.00;;;;;;;6.36;62.13;103329.41;5049345;28;20107;-47
2024/01/28 02:24:53;;;;;;;0.10;0.10;;;;;;;6.35;62.48;103331.16;5031132;28;20096;-47
2024/01/28 02:27:18;;;;;;;0.10;0.10;;;;;;;6.36;62.10;103324.16;5051271;28;20060;-46
2024/01/28 02:29:44;;;;;;;0.10;0.10;;;;;;;6.31;61.89;103323.31;5050303;28;20040;-48
2024/01/28 02:32:11;;;;;;;0.10;0.10;;;;;;;6.29;61.69;103317.19;5043296;28;20178;-40
2024/01/28 02:34:37;;;;;;;0.10;0.10;;;;;;;6.29;61.85;103322.44;5047628;28;20372;-38
2024/01/28 02:37:02;;;;;;;0.10;0.10;;;;;;;6.36;62.36;103316.31;5051057;28;20523;-36
2024/01/28 02:39:28;;;;;;;0.20;0.20;;;;;;;6.37;62.18;103320.69;5051058;28;20033;-37
2024/01/28 02:41:53;;;;;;;0.10;0.10;;;;;;;6.36;61.99;103330.28;5047773;28;20036;-38
2024/01/28 02:44:18;;;;;;;0.10;0.10;;;;;;;6.34;61.92;103326.78;5048180;28;20433;-36
2024/01/28 02:46:44;;;;;;;0.10;0.10;;;;;;;6.36;61.94;103325.06;5047540;28;20095;-40
2024/01/28 02:49:09;;;;;;;0.10;0.10;;;;;;;6.30;61.81;103325.03;5063292;28;20115;-40
2024/01/28 02:51:34;;;;;;;0.10;0.10;;;;;;;6.31;62.03;103331.16;5049996;28;20664;-40
2024/01/28 02:54:00;;;;;;;0.10;0.10;;;;;;;6.30;62.13;103330.25;5042539;28;20488;-38
2024/01/28 02:56:25;;;;;;;0.10;0.10;;;;;;;6.29;62.32;103322.44;5052730;28;20043;-40
2024/01/28 02:58:50;;;;;;;0.10;0.10;;;;;;;6.23;61.83;103325.91;5046510;28;20044;-39
2024/01/28 03:01:16;;;;;;;0.10;0.10;;;;;;;6.22;61.85;103324.16;5050082;28;20178;-38
2024/01/28 03:03:41;;;;;;;0.10;0.10;;;;;;;6.24;62.53;103325.91;5029902;28;20041;-37
2024/01/28 03:06:06;;;;;;;0.10;0.10;;;;;;;6.20;61.91;103320.66;5049141;28;20036;-38
2024/01/28 03:08:32;;;;;;;0.10;0.10;;;;;;;6.17;62.24;103312.81;5049163;28;20506;-36
2024/01/28 03:10:57;;;;;;;0.10;0.10;;;;;;;6.14;62.17;103308.47;5049526;28;20036;-39
2024/01/28 03:13:22;;;;;;;0.10;0.10;;;;;;;6.12;62.16;103298.88;5048211;28;20028;-39
2024/01/28 03:15:50;;;;;;;0.10;0.10;;;;;;;6.11;62.65;103303.22;5042458;28;20414;-38
2024/01/28 03:18:15;;;;;;;0.10;0.10;;;;;;;6.10;62.46;103311.94;5049323;28;20404;-35
2024/01/28 03:20:41;;;;;;;0.10;0.10;;;;;;;6.06;62.62;103316.28;5067947;28;20104;-39
2024/01/28 03:23:06;;;;;;;0.10;0.10;;;;;;;6.01;62.19;103307.53;5048698;28;20509;-39
2024/01/28 03:25:31;;;;;;;0.10;0.10;;;;;;;5.98;62.02;103307.50;5058802;28;20028;-38
2024/01/28 03:27:56;;;;;;;0.10;0.10;;;;;;;5.99;62.31;103303.16;5053476;28;20036;-39
2024/01/28 03:30:22;;;;;;;0.10;0.10;;;;;;;5.94;62.27;103308.38;5049789;28;20029;-39
2024/01/28 03:32:47;;;;;;;0.10;0.10;;;;;;;5.93;62.29;103304.03;5062507;28;20037;-39
2024/01/28 03:35:12;;;;;;;0.10;0.10;;;;;;;5.90;62.14;103317.06;5049306;28;20484;-38
2024/01/28 03:37:37;;;;;;;0.10;0.10;;;;;;;5.89;62.47;103317.94;5050308;28;20036;-39
2024/01/28 03:40:03;;;;;;;0.10;0.10;;;;;;;5.91;62.52;103318.81;5048375;28;20048;-39
2024/01/28 03:42:29;;;;;;;0.10;0.10;;;;;;;5.90;62.69;103320.53;5046973;28;20033;-38
2024/01/28 03:44:54;;;;;;;0.10;0.10;;;;;;;5.93;62.75;103319.69;5050196;28;20399;-40
2024/01/28 03:47:20;;;;;;;2.10;0.40;;;;;;;5.92;62.21;103323.19;5040796;28;20115;-38
2024/01/28 03:49:46;;;;;;;0.10;0.10;;;;;;;5.91;62.53;103322.28;5046530;28;20371;-39
2024/01/28 03:52:11;;;;;;;0.10;0.10;;;;;;;5.95;62.85;103323.19;5051770;28;20036;-39
2024/01/28 03:54:36;;;;;;;0.10;0.10;;;;;;;5.94;62.35;103322.31;5045998;28;20048;-39
2024/01/28 03:57:02;;;;;;;3.40;3.13;;;;;;;5.94;62.62;103311.84;5048426;28;20040;-39
2024/01/28 03:59:27;;;;;;;1.38;1.00;;;;;;;5.92;62.37;103324.03;5047346;28;20036;-39
2024/01/28 04:01:52;;;;;;;0.10;0.10;;;;;;;5.88;62.45;103318.81;5046326;28;20037;-39
2024/01/28 04:04:18;;;;;;;0.45;0.43;;;;;;;5.85;62.34;103321.41;5047927;28;20386;-39
2024/01/28 04:06:44;;;;;;;3.13;1.93;;;;;;;5.83;62.61;103323.13;5048204;28;20045;-39
2024/01/28 04:09:10;;;;;;;0.65;0.60;;;;;;;5.77;62.33;103319.66;5049416;28;20287;-39
2024/01/28 04:11:35;;;;;;;0.22;0.22;;;;;;;5.76;62.46;103325.72;5048243;28;20112;-39
2024/01/28 04:14:00;;;;;;;0.20;0.20;;;;;;;5.73;62.82;103328.31;5042270;28;20111;-40
2024/01/28 04:16:26;;;;;;;0.52;0.38;;;;;;;5.71;62.57;103335.28;5049990;28;20291;-40
2024/01/28 04:18:52;;;;;;;0.20;0.20;;;;;;;5.66;62.64;103326.56;5060065;28;20040;-39
2024/01/28 04:21:17;;;;;;;0.13;0.10;;;;;;;5.63;62.87;103323.94;5032749;28;20458;-39
2024/01/28 04:23:43;;;;;;;0.28;0.25;;;;;;;5.62;62.92;103327.41;5044451;28;20025;-39
2024/01/28 04:26:09;;;;;;;0.10;0.10;;;;;;;5.56;62.45;103330.88;5045183;28;20032;-39
2024/01/28 04:28:35;;;;;;;0.13;0.13;;;;;;;5.54;62.24;103331.72;5044574;28;20031;-39
2024/01/28 04:31:02;;;;;;;0.30;0.30;;;;;;;5.54;62.50;103331.72;5029791;28;20037;-40
2024/01/28 04:33:28;;;;;;;0.20;0.20;;;;;;;5.50;62.63;103330.84;5029896;28;20032;-39
2024/01/28 04:35:53;;;;;;;0.10;0.10;;;;;;;5.51;62.91;103327.34;5047110;28;20029;-38
2024/01/28 04:38:18;;;;;;;0.10;0.10;;;;;;;5.51;62.75;103331.72;5045641;28;20029;-38
2024/01/28 04:40:44;;;;;;;0.10;0.10;;;;;;;5.50;62.67;103328.22;5046475;28;20040;-39
2024/01/28 04:43:09;;;;;;;0.10;0.10;;;;;;;5.49;62.67;103323.84;5041475;28;20116;-38
2024/01/28 04:45:35;;;;;;;0.20;0.20;;;;;;;5.51;62.72;103321.28;5041684;28;20035;-36
2024/01/28 04:48:00;;;;;;;0.20;0.20;;;;;;;5.45;62.53;103320.38;5044484;28;20610;-38
2024/01/28 04:50:26;;;;;;;0.10;0.10;;;;;;;5.46;62.98;103323.84;5028614;28;20039;-37
2024/01/28 04:52:51;;;;;;;0.20;0.20;;;;;;;5.52;63.03;103316.03;5042390;28;20036;-38
2024/01/28 04:55:17;;;;;;;0.10;0.10;;;;;;;5.54;62.80;103316.03;5047302;28;20104;-36
2024/01/28 04:57:42;;;;;;;0.10;0.10;;;;;;;5.61;63.04;103312.59;5029318;28;20452;-36
2024/01/28 05:00:10;;;;;;;0.10;0.10;;;;;;;5.62;62.73;103303.91;5040075;28;20901;-39
2024/01/28 05:02:36;;;;;;;0.20;0.20;;;;;;;5.62;62.94;103311.75;5047020;28;20099;-36
2024/01/28 05:05:02;;;;;;;0.10;0.10;;;;;;;5.60;62.82;103305.63;5046288;28;20106;-38
2024/01/28 05:07:27;;;;;;;0.10;0.10;;;;;;;5.67;63.00;103317.88;5045667;28;20096;-37
2024/01/28 05:09:52;;;;;;;0.10;0.10;;;;;;;5.75;63.20;103324.00;5046998;28;20033;-38
2024/01/28 05:12:17;;;;;;;0.10;0.10;;;;;;;5.77;62.79;103329.19;5045633;28;20364;-38
2024/01/28 05:14:43;;;;;;;0.13;0.13;;;;;;;5.77;62.88;103331.81;5039788;28;20314;-38
2024/01/28 05:17:08;;;;;;;0.10;0.10;;;;;;;5.77;62.74;103323.97;5042812;28;20124;-42
2024/01/28 05:19:33;;;;;;;0.10;0.10;;;;;;;5.73;62.32;103333.56;5042448;28;20287;-41
2024/01/28 05:21:59;;;;;;;0.10;0.10;;;;;;;5.72;62.48;103333.56;5043813;28;20037;-38
2024/01/28 05:24:24;;;;;;;0.10;0.10;;;;;;;5.68;62.60;103330.03;5042724;28;20044;-35
2024/01/28 05:26:49;;;;;;;0.10;0.10;;;;;;;5.69;62.70;103337.00;5046712;28;20032;-36
2024/01/28 05:29:15;;;;;;;0.10;0.10;;;;;;;5.67;62.45;103349.22;5041212;28;20492;-41
2024/01/28 05:31:40;;;;;;;0.10;0.10;;;;;;;5.64;62.78;103338.75;5043032;28;20131;-36
2024/01/28 05:34:06;;;;;;;0.10;0.10;;;;;;;5.58;62.61;103347.44;5044755;28;20078;-33
2024/01/28 05:36:31;;;;;;;0.10;0.10;;;;;;;5.58;62.53;103336.09;5027246;28;20529;-39
2024/01/28 05:38:57;;;;;;;0.10;0.10;;;;;;;5.56;62.43;103340.44;5042211;28;20036;-38
2024/01/28 05:41:23;;;;;;;0.10;0.10;;;;;;;5.54;62.61;103342.16;5043830;28;20373;-38
2024/01/28 05:43:48;;;;;;;0.10;0.10;;;;;;;5.53;62.99;103343.03;5043463;28;20067;-39
2024/01/28 05:46:14;;;;;;;0.10;0.10;;;;;;;5.49;62.62;103350.88;5039479;28;20507;-40
2024/01/28 05:48:39;;;;;;;0.10;0.10;;;;;;;5.41;62.82;103356.91;5045134;28;20037;-38
2024/01/28 05:51:04;;;;;;;0.10;0.10;;;;;;;5.41;62.54;103354.28;5027792;28;20041;-36
2024/01/28 05:53:30;;;;;;;0.10;0.10;;;;;;;5.38;62.97;103347.28;5042615;28;20068;-38
2024/01/28 05:55:55;;;;;;;0.17;0.17;;;;;;;5.37;62.81;103337.72;5045580;28;20063;-37
2024/01/28 05:58:21;;;;;;;0.10;0.10;;;;;;;5.35;62.78;103342.09;5027411;28;20108;-38
2024/01/28 06:00:47;;;;;;;0.30;0.20;;;;;;;5.33;62.70;103347.28;5041890;28;20300;-39
2024/01/28 06:03:13;;;;;;;0.00;0.00;;;;;;;5.32;63.04;103342.06;5031293;28;20044;-38
2024/01/28 06:05:38;;;;;;;0.10;0.10;;;;;;;5.27;63.15;103355.09;5037736;28;20048;-40
2024/01/28 06:08:04;;;;;;;2.95;2.85;;;;;;;5.25;62.63;103350.69;5039740;28;20045;-38
2024/01/28 06:10:29;;;;;;;0.10;0.10;;;;;;;5.23;62.77;103353.31;5028814;28;20119;-36
2024/01/28 06:12:54;;;;;;;0.10;0.10;;;;;;;5.22;63.07;103361.16;5046543;28;20188;-36
2024/01/28 06:15:20;;;;;;;0.10;0.10;;;;;;;5.24;63.01;103349.84;5044452;28;20370;-41
2024/01/28 06:17:45;;;;;;;0.10;0.10;;;;;;;5.26;63.09;103357.66;5033625;28;20099;-36
2024/01/28 06:20:10;;;;;;;0.10;0.10;;;;;;;5.22;63.09;103348.94;5049023;28;20541;-40
2024/01/28 06:22:36;;;;;;;0.10;0.10;;;;;;;5.18;62.95;103350.69;5045039;28;20287;-34
2024/01/28 06:25:02;;;;;;;0.10;0.10;;;;;;;5.19;62.76;103346.31;5056892;28;20021;-38
2024/01/28 06:27:27;;;;;;;0.10;0.10;;;;;;;5.17;62.99;103354.16;5052318;28;20033;-40
2024/01/28 06:29:54;;;;;;;0.10;0.10;;;;;;;5.17;63.14;103353.25;5049805;28;20413;-39
2024/01/28 06:32:21;;;;;;;0.10;0.10;;;;;;;5.19;63.05;103355.03;5048293;28;20029;-41
2024/01/28 06:34:46;;;;;;;0.10;0.10;;;;;;;5.22;63.04;103355.94;5052239;28;20036;-41
2024/01/28 06:37:11;;;;;;;0.10;0.10;;;;;;;5.20;63.01;103350.66;5051366;28;20035;-40
2024/01/28 06:39:37;;;;;;;0.10;0.10;;;;;;;5.22;62.95;103350.69;5052279;28;20024;-40
2024/01/28 06:42:02;;;;;;;0.03;0.03;;;;;;;5.19;62.83;103356.75;5045060;28;20063;-36
2024/01/28 06:44:28;;;;;;;0.10;0.10;;;;;;;5.15;62.86;103358.47;5048199;28;20272;-38
2024/01/28 06:46:53;;;;;;;0.10;0.10;;;;;;;5.16;63.04;103360.22;5042973;28;20903;-39
2024/01/28 06:49:18;;;;;;;0.10;0.10;;;;;;;5.16;63.11;103362.84;5045766;28;20037;-39
2024/01/28 06:51:43;;;;;;;0.20;0.20;;;;;;;5.13;63.09;103360.19;5044811;28;20293;-39
2024/01/28 06:54:12;;;;;;;0.10;0.10;;;;;;;5.15;62.87;103368.91;5058410;28;20040;-39
2024/01/28 06:56:37;;;;;;;0.20;0.20;;;;;;;5.19;63.12;103372.41;5045763;28;20328;-39
2024/01/28 06:59:02;;;;;;;0.10;0.10;;;;;;;5.23;63.15;103375.91;5046361;28;20036;-39
2024/01/28 07:01:28;;;;;;;0.10;0.10;;;;;;;5.24;63.25;103375.06;5052501;28;20302;-39
2024/01/28 07:03:58;;;;;;;0.20;0.20;;;;;;;5.26;63.19;103379.44;5044663;28;20056;-40
2024/01/28 07:06:25;;;;;;;0.32;0.22;;;;;;;5.26;62.99;103384.66;5048283;28;20415;-39
2024/01/28 07:08:50;;;;;;;1.10;0.55;;;;;;;5.25;62.92;103384.63;5048343;28;20080;-39
2024/01/28 07:11:16;;;;;;;1.65;1.13;;;;;;;5.21;62.69;103390.72;5051997;28;20577;-39
2024/01/28 07:13:41;;;;;;;0.28;0.17;;;;;;;5.19;63.10;103383.75;5052050;28;20036;-37
2024/01/28 07:16:07;;;;;;;0.13;0.13;;;;;;;5.15;62.90;103376.75;5042813;28;20036;-40
2024/01/28 07:18:33;;;;;;;3.13;3.03;;;;;;;5.16;62.97;103381.09;5048434;28;20021;-37
2024/01/28 07:20:58;;;;;;;0.10;0.10;;;;;;;5.15;62.91;103373.25;5048997;28;20053;-39
2024/01/28 07:23:23;;;;;;;0.10;0.10;;;;;;;5.14;62.78;103361.09;5051374;28;20454;-37
2024/01/28 07:25:48;;;;;;;0.10;0.10;;;;;;;5.19;63.23;103362.88;5053639;28;20056;-38
2024/01/28 07:28:14;;;;;;;0.15;0.15;;;;;;;5.17;62.78;103374.13;5049345;28;20037;-38
2024/01/28 07:30:39;;;;;;;0.20;0.20;;;;;;;5.17;63.00;103369.81;5048417;28;20033;-38
2024/01/28 07:33:07;;;;;;;0.30;0.30;;;;;;;5.19;62.97;103377.63;5032479;28;20055;-38
2024/01/28 07:35:33;;;;;;;0.68;0.30;;;;;;;5.21;63.02;103375.06;5050513;28;20032;-38
2024/01/28 07:37:59;;;;;;;0.50;0.32;;;;;;;5.23;63.22;103383.75;5013583;28;20418;-37
2024/01/28 07:40:24;;;;;;;0.30;0.20;;;;;;;5.24;63.31;103373.34;5052829;28;20039;-36
2024/01/28 07:42:49;;;;;;;0.10;0.10;;;;;;;5.28;63.27;103379.44;5048418;28;20493;-39
2024/01/28 07:45:15;;;;;;;0.15;0.13;;;;;;;5.29;63.42;103383.81;5047775;28;20272;-36
2024/01/28 07:47:40;;;;;;;0.10;0.10;;;;;;;5.32;63.41;103378.59;5046617;28;20041;-38
2024/01/28 07:50:06;;;;;;;0.22;0.20;;;;;;;5.33;63.28;103380.34;5047309;28;20021;-39
2024/01/28 07:52:32;;;;;;;0.10;0.10;;;;;;;5.32;63.09;103379.47;5048668;28;20403;-38
2024/01/28 07:54:57;;;;;;;0.47;0.30;;;;;;;5.33;63.13;103389.06;5048745;28;20029;-37
2024/01/28 07:57:22;;;;;;;0.10;0.10;;;;;;;5.34;63.11;103387.31;5050240;28;20118;-37
2024/01/28 07:59:49;;;;;;;0.10;0.10;;;;;;;5.37;63.16;103389.06;5045464;28;20098;-38
2024/01/28 08:02:14;;;;;;;0.70;0.40;;;;;;;5.41;63.57;103383.03;5046889;28;20032;-40
2024/01/28 08:04:40;;;;;;;1.30;1.20;;;;;;;5.46;63.72;103383.91;5049631;28;20033;-36
2024/01/28 08:07:05;;;;;;;0.73;0.60;;;;;;;5.47;63.40;103378.72;5033284;28;20037;-36
2024/01/28 08:09:33;;;;;;;0.35;0.30;;;;;;;5.49;62.82;103379.59;5044686;28;20028;-38
2024/01/28 08:11:58;;;;;;;0.32;0.20;;;;;;;5.51;63.24;103379.59;5046126;28;20025;-41
2024/01/28 08:14:27;;;;;;;0.20;0.20;;;;;;;5.53;63.29;103382.19;5048247;28;20600;-35
2024/01/28 08:16:55;;;;;;;0.10;0.10;;;;;;;5.53;63.41;103379.59;5032403;28;20086;-40
2024/01/28 08:19:20;;;;;;;0.68;0.22;;;;;;;5.55;63.20;103376.13;5047866;28;20119;-39
2024/01/28 08:21:47;;;;;;;7.78;3.30;;;;;;;5.57;63.52;103383.97;5046047;28;20128;-38
2024/01/28 08:24:13;;;;;;;0.20;0.20;;;;;;;5.57;63.27;103381.38;5027837;28;20029;-38
2024/01/28 08:26:38;;;;;;;0.10;0.10;;;;;;;5.61;63.42;103380.53;5033715;28;20040;-38
2024/01/28 08:29:04;;;;;;;0.10;0.10;;;;;;;5.70;62.96;103385.78;5029057;28;20181;-37
2024/01/28 08:31:29;;;;;;;0.10;0.10;;;;;;;5.78;62.71;103383.22;5006538;28;20514;-39
2024/01/28 08:33:54;;;;;;;0.10;0.10;;;;;;;5.81;62.63;103385.84;5037802;28;20035;-39
2024/01/28 08:36:20;;;;;;;0.10;0.10;;;;;;;5.86;62.74;103384.13;5035013;28;20028;-39
2024/01/28 08:38:45;;;;;;;0.10;0.10;;;;;;;5.91;62.92;103387.63;5037847;28;20037;-39
2024/01/28 08:41:11;;;;;;;0.10;0.10;;;;;;;5.98;62.96;103398.97;5020020;28;20033;-40
2024/01/28 08:43:37;;;;;;;0.10;0.10;;;;;;;6.03;63.16;103396.44;5036066;28;20302;-39
2024/01/28 08:46:03;;;;;;;0.10;0.10;;;;;;;6.05;62.78;103400.78;5038282;28;20426;-40
2024/01/28 08:48:29;;;;;;;0.10;0.10;;;;;;;6.09;62.86;103405.19;5038162;28;20506;-42
2024/01/28 08:50:54;;;;;;;0.10;0.10;;;;;;;6.10;62.72;103406.94;5041517;28;20071;-40
2024/01/28 08:53:19;;;;;;;0.13;0.13;;;;;;;6.12;62.65;103396.47;5040032;28;20029;-38
2024/01/28 08:55:44;;;;;;;0.10;0.10;;;;;;;6.13;62.53;103408.66;5046287;28;20029;-40
2024/01/28 08:58:10;;;;;;;0.22;0.20;;;;;;;6.20;63.14;103407.81;5036515;28;20032;-40
2024/01/28 09:00:35;;;;;;;0.32;0.30;;;;;;;6.23;62.52;103401.75;5061597;28;20029;-41
2024/01/28 09:03:01;;;;;;;0.55;0.40;;;;;;;6.30;62.82;103393.03;5044180;28;20090;-39
2024/01/28 09:05:26;;;;;;;0.10;0.10;;;;;;;6.36;62.50;103403.50;5038215;28;20056;-39
2024/01/28 09:07:52;;;;;;;0.20;0.20;;;;;;;6.40;62.64;103399.16;5042597;28;20060;-37
2024/01/28 09:10:19;;;;;;;0.13;0.13;;;;;;;6.41;62.59;103395.69;5033601;28;20286;-38
2024/01/28 09:12:44;;;;;;;0.10;0.10;;;;;;;6.50;62.73;103406.19;5058705;28;20060;-36
2024/01/28 09:15:10;;;;;;;0.98;0.60;;;;;;;6.56;62.60;103406.16;5042901;28;20072;-36
2024/01/28 09:17:35;;;;;;;0.68;0.57;;;;;;;6.57;62.42;103412.28;5036077;28;20040;-39
2024/01/28 09:20:01;;;;;;;0.10;0.10;;;;;;;6.61;62.68;103403.56;5020796;28;20495;-38
2024/01/28 09:22:26;;;;;;;0.22;0.22;;;;;;;6.51;62.93;103401.81;5042079;28;20040;-43
2024/01/28 09:24:51;;;;;;;0.20;0.20;;;;;;;6.49;63.12;103393.06;5043388;28;20119;-40
2024/01/28 09:27:17;;;;;;;0.20;0.20;;;;;;;6.51;62.84;103391.34;5036422;28;20057;-39
2024/01/28 09:29:43;;;;;;;0.52;0.43;;;;;;;6.54;63.11;103391.34;5049096;28;20029;-41
2024/01/28 09:32:08;;;;;;;0.13;0.13;;;;;;;6.56;63.06;103397.47;5043929;28;20021;-35
2024/01/28 09:34:37;;;;;;;0.28;0.20;;;;;;;6.60;63.06;103393.97;5044367;28;20087;-37
2024/01/28 09:37:02;;;;;;;0.38;0.30;;;;;;;6.65;62.86;103394.84;5039649;28;20037;-36
2024/01/28 09:39:29;;;;;;;0.20;0.20;;;;;;;6.65;62.92;103405.31;5049535;28;20340;-36
2024/01/28 09:42:10;;;;;;;0.32;0.20;;;;;;;6.66;63.07;103412.31;5044133;28;20032;-36
2024/01/28 09:44:37;;;;;;;0.10;0.10;;;;;;;6.65;63.25;103415.78;5040757;28;20029;-39
2024/01/28 09:47:04;;;;;;;0.50;0.22;;;;;;;6.67;62.96;103421.91;5046999;28;20033;-39
2024/01/28 09:49:31;;;;;;;0.40;0.25;;;;;;;6.69;62.94;103424.50;5041769;28;20489;-39
2024/01/28 09:51:56;;;;;;;0.17;0.15;;;;;;;6.71;62.82;103423.66;5045606;28;20577;-40
2024/01/28 09:54:21;;;;;;;0.30;0.25;;;;;;;6.74;63.27;103416.66;5045621;28;20147;-36
2024/01/28 09:56:48;;;;;;;0.70;0.38;;;;;;;6.82;63.05;103425.41;5037417;28;20083;-37
2024/01/28 09:59:14;;;;;;;0.10;0.10;;;;;;;6.86;63.12;103425.41;5047900;28;20033;-42
2024/01/28 10:01:42;;;;;;;0.15;0.13;;;;;;;6.88;62.89;103428.03;5046727;28;21302;-42
2024/01/28 10:04:10;;;;;;;0.25;0.15;;;;;;;6.95;63.27;103423.69;5051577;28;20033;-38
2024/01/28 10:06:35;;;;;;;0.13;0.13;;;;;;;6.97;62.76;103417.56;5046969;28;20108;-38
2024/01/28 10:09:00;;;;;;;0.15;0.15;;;;;;;6.98;62.64;103419.31;5043491;28;20155;-38
2024/01/28 10:11:26;;;;;;;0.10;0.10;;;;;;;7.04;62.83;103428.91;5050874;28;21443;-37
2024/01/28 10:13:53;;;;;;;0.43;0.40;;;;;;;7.08;63.17;103428.06;5046374;28;20271;-36
2024/01/28 10:16:23;;;;;;;1.17;0.68;;;;;;;7.08;62.58;103424.53;5025978;28;20084;-37
2024/01/28 10:18:48;;;;;;;0.20;0.20;;;;;;;7.11;62.94;103428.03;5042058;28;20102;-37
2024/01/28 10:21:13;;;;;;;0.10;0.10;;;;;;;7.18;62.84;103436.78;5045330;28;20041;-38
2024/01/28 10:23:38;;;;;;;0.17;0.17;;;;;;;7.22;62.75;103440.25;5042796;28;20037;-39
2024/01/28 10:26:05;;;;;;;0.13;0.13;;;;;;;7.30;62.79;103430.66;5042571;28;20286;-38
2024/01/28 10:28:31;;;;;;;2.15;2.00;;;;;;;7.33;63.12;103425.41;5039876;28;20036;-39
2024/01/28 10:30:56;;;;;;;0.20;0.20;;;;;;;7.39;62.60;103421.91;5046274;28;20060;-37
2024/01/28 10:33:22;;;;;;;0.67;0.53;;;;;;;7.45;62.79;103414.91;5049061;28;20478;-39
2024/01/28 10:35:47;;;;;;;0.85;0.85;;;;;;;7.48;62.64;103404.44;5044512;28;20259;-40
2024/01/28 10:38:18;;;;;;;0.57;0.30;;;;;;;7.55;62.54;103405.28;5045896;28;20033;-38
2024/01/28 10:40:44;;;;;;;0.25;0.17;;;;;;;7.59;62.57;103399.16;5044820;28;20061;-39
2024/01/28 10:43:15;;;;;;;0.13;0.13;;;;;;;7.65;62.45;103394.75;5047963;28;20033;-39
2024/01/28 10:45:42;;;;;;;0.10;0.10;;;;;;;7.71;62.69;103392.16;5050174;28;20040;-38
2024/01/28 10:48:16;;;;;;;0.85;0.52;;;;;;;7.76;62.47;103393.00;5046859;28;20029;-43
2024/01/28 10:50:41;;;;;;;1.00;0.98;;;;;;;7.79;62.39;103403.47;5047038;28;20028;-38
2024/01/28 10:53:08;;;;;;;0.20;0.20;;;;;;;7.84;62.51;103398.22;5048034;28;20067;-36
2024/01/28 10:55:34;;;;;;;0.22;0.20;;;;;;;7.86;62.14;103399.97;5048763;28;20028;-39
2024/01/28 10:58:00;;;;;;;0.22;0.20;;;;;;;7.88;62.20;103400.81;5045700;28;20044;-37
2024/01/28 11:00:28;;;;;;;0.10;0.10;;;;;;;7.87;62.11;103396.47;5045117;28;20045;-40
2024/01/28 11:02:56;;;;;;;0.17;0.17;;;;;;;8.01;61.73;103404.28;5045519;28;20480;-36
2024/01/28 11:05:23;;;;;;;0.15;0.15;;;;;;;8.14;61.28;103404.22;5047852;28;20094;-39
2024/01/28 11:07:49;;;;;;;0.32;0.28;;;;;;;8.21;61.32;103391.06;5025954;28;20042;-37
2024/01/28 11:10:15;;;;;;;0.40;0.40;;;;;;;8.27;61.05;103386.66;5040702;28;20025;-38
2024/01/28 11:12:41;;;;;;;0.28;0.22;;;;;;;8.32;61.10;103382.25;5047752;28;20059;-38
2024/01/28 11:15:11;;;;;;;0.28;0.22;;;;;;;8.30;60.59;103373.53;5041457;28;20041;-43
2024/01/28 11:17:37;;;;;;;1.02;0.60;;;;;;;8.36;60.79;103365.63;5044820;28;20029;-41
2024/01/28 11:20:11;;;;;;;0.35;0.25;;;;;;;8.40;60.48;103359.44;5042909;28;20079;-38
2024/01/28 11:22:48;;;;;;;0.15;0.10;;;;;;;8.45;60.53;103362.94;5041014;28;20034;-36
2024/01/28 11:25:22;;;;;;;0.28;0.20;;;;;;;8.46;60.45;103361.19;5045924;28;20040;-38
2024/01/28 11:27:52;;;;;;;0.28;0.22;;;;;;;8.51;59.90;103356.78;5027878;28;20037;-38